createdAt,value
2022-07-26T00:01:23.647Z,101191.72
2022-07-26T00:03:55.936Z,101196.75
2022-07-26T00:06:25.537Z,101198.28
2022-07-26T00:08:54.395Z,101202.44
2022-07-26T00:11:23.544Z,101204.19
2022-07-26T00:13:51.802Z,101211.16
2022-07-26T00:16:21.872Z,101211.16
2022-07-26T00:18:50.159Z,101217.72
2022-07-26T00:21:19.821Z,101215.75
2022-07-26T00:23:48.218Z,101217.72
2022-07-26T00:26:16.625Z,101215.53
2022-07-26T00:28:45.113Z,101217.28
2022-07-26T00:31:13.750Z,101217.53
2022-07-26T00:33:42.154Z,101222.13
2022-07-26T00:36:10.653Z,101229.25
2022-07-26T00:38:40.567Z,101230.53
2022-07-26T00:41:09.475Z,101239.78
2022-07-26T00:43:37.946Z,101220.22
2022-07-26T00:46:06.708Z,101227.94
2022-07-26T00:48:35.078Z,101236.13
2022-07-26T00:51:03.361Z,101243.31
2022-07-26T00:53:31.566Z,101245.47
2022-07-26T00:56:01.247Z,101242.59
2022-07-26T00:58:29.460Z,101239.94
2022-07-26T01:00:57.786Z,101249.56
2022-07-26T01:03:29.069Z,101229.03
2022-07-26T01:05:58.743Z,101256.13
2022-07-26T01:08:27.204Z,101256.97
2022-07-26T01:10:55.853Z,101253.69
2022-07-26T01:13:30.684Z,101258.59
2022-07-26T01:16:01.608Z,101251.47
2022-07-26T01:18:30.016Z,101254.31
2022-07-26T01:21:01.725Z,101258.25
2022-07-26T01:23:43.028Z,101255.56
2022-07-26T01:26:11.727Z,101260.50
2022-07-26T01:28:42.517Z,101255.38
2022-07-26T01:31:10.980Z,101258.97
2022-07-26T01:33:39.383Z,101261.09
2022-07-26T01:36:08.268Z,101263.47
2022-07-26T01:38:36.712Z,101258.81
2022-07-26T01:41:06.790Z,101257.00
2022-07-26T01:43:35.204Z,101269.56
2022-07-26T01:46:03.827Z,101264.75
2022-07-26T01:48:33.021Z,101271.53
2022-07-26T01:51:01.503Z,101261.34
2022-07-26T01:53:29.868Z,101266.69
2022-07-26T01:55:58.483Z,101260.38
2022-07-26T01:58:28.143Z,101265.97
2022-07-26T02:00:56.440Z,101262.78
2022-07-26T02:03:24.739Z,101267.75
2022-07-26T02:05:53.056Z,101257.09
2022-07-26T02:08:22.323Z,101272.00
2022-07-26T02:11:03.602Z,101268.34
2022-07-26T02:13:36.055Z,101260.84
2022-07-26T02:16:06.737Z,101268.44
2022-07-26T02:18:36.558Z,101272.66
2022-07-26T02:21:06.903Z,101274.81
2022-07-26T02:23:36.039Z,101289.69
2022-07-26T02:26:09.691Z,101275.44
2022-07-26T02:28:39.398Z,101274.81
2022-07-26T02:31:07.745Z,101261.66
2022-07-26T02:33:36.073Z,101280.31
2022-07-26T02:36:04.667Z,101279.91
2022-07-26T02:38:32.939Z,101276.75
2022-07-26T02:41:01.251Z,101282.72
2022-07-26T02:43:30.608Z,101286.34
2022-07-26T02:46:01.649Z,101252.56
2022-07-26T02:48:31.575Z,101277.94
2022-07-26T02:51:00.054Z,101283.09
2022-07-26T02:53:28.793Z,101278.34
2022-07-26T02:55:57.007Z,101288.25
2022-07-26T02:58:26.891Z,101287.22
2022-07-26T03:00:55.390Z,101293.06
2022-07-26T03:03:25.138Z,101287.28
2022-07-26T03:05:53.396Z,101282.38
2022-07-26T03:08:21.833Z,101290.84
2022-07-26T03:10:50.327Z,101293.47
2022-07-26T03:13:18.717Z,101297.69
2022-07-26T03:15:47.058Z,101301.72
2022-07-26T03:18:15.376Z,101305.41
2022-07-26T03:20:45.882Z,101301.78
2022-07-26T03:23:14.158Z,101301.25
2022-07-26T03:25:42.348Z,101296.31
2022-07-26T03:28:13.653Z,101302.47
2022-07-26T03:30:44.583Z,101296.53
2022-07-26T03:33:12.840Z,101308.38
2022-07-26T03:35:41.196Z,101310.91
2022-07-26T03:38:11.569Z,101318.22
2022-07-26T03:40:39.923Z,101311.72
2022-07-26T03:43:08.210Z,101325.69
2022-07-26T03:45:36.964Z,101321.81
2022-07-26T03:48:06.116Z,101311.06
2022-07-26T03:50:34.680Z,101315.59
2022-07-26T03:53:02.915Z,101322.75
2022-07-26T03:55:49.910Z,101319.41
2022-07-26T03:58:19.198Z,101319.13
2022-07-26T04:00:47.751Z,101289.81
2022-07-26T04:03:16.044Z,101325.22
2022-07-26T04:05:49.051Z,101317.44
2022-07-26T04:08:17.610Z,101328.97
2022-07-26T04:10:51.224Z,101325.81
2022-07-26T04:13:19.732Z,101329.13
2022-07-26T04:15:48.176Z,101333.22
2022-07-26T04:18:16.634Z,101336.38
2022-07-26T04:20:45.403Z,101340.75
2022-07-26T04:23:13.987Z,101334.25
2022-07-26T04:25:42.658Z,101306.84
2022-07-26T04:28:13.452Z,101334.75
2022-07-26T04:30:42.576Z,101342.53
2022-07-26T04:33:11.148Z,101338.88
2022-07-26T04:35:39.497Z,101345.06
2022-07-26T04:38:07.747Z,101347.81
2022-07-26T04:40:40.746Z,101344.31
2022-07-26T04:43:15.414Z,101347.00
2022-07-26T04:45:44.758Z,101349.34
2022-07-26T04:48:13.336Z,101355.47
2022-07-26T04:50:42.080Z,101358.16
2022-07-26T04:53:11.128Z,101361.69
2022-07-26T04:55:39.943Z,101361.38
2022-07-26T04:58:08.594Z,101366.38
2022-07-26T05:01:02.610Z,101374.34
2022-07-26T05:03:27.267Z,101380.59
2022-07-26T05:05:55.655Z,101383.50
2022-07-26T05:08:24.017Z,101392.38
2022-07-26T05:10:55.639Z,101394.16
2022-07-26T05:13:30.046Z,101402.47
2022-07-26T05:16:01.827Z,101405.63
2022-07-26T05:18:45.863Z,101400.44
2022-07-26T05:21:19.629Z,101406.03
2022-07-26T05:23:48.417Z,101398.91
2022-07-26T05:26:17.955Z,101417.66
2022-07-26T05:28:46.345Z,101420.03
2022-07-26T05:31:17.021Z,101428.41
2022-07-26T05:33:45.537Z,101426.28
2022-07-26T05:36:13.878Z,101420.16
2022-07-26T05:38:42.238Z,101403.00
2022-07-26T05:41:10.578Z,101419.47
2022-07-26T05:43:41.311Z,101421.88
2022-07-26T05:46:11.855Z,101432.59
2022-07-26T05:48:42.154Z,101392.78
2022-07-26T05:51:10.911Z,101431.66
2022-07-26T05:53:39.738Z,101442.19
2022-07-26T05:56:08.834Z,101439.22
2022-07-26T05:58:38.106Z,101434.94
2022-07-26T06:01:06.860Z,101441.25
2022-07-26T06:03:35.157Z,101447.13
2022-07-26T06:06:05.948Z,101462.81
2022-07-26T06:08:34.539Z,101446.41
2022-07-26T06:11:02.901Z,101452.50
2022-07-26T06:13:31.267Z,101455.56
2022-07-26T06:15:59.630Z,101459.50
2022-07-26T06:18:28.036Z,101467.41
2022-07-26T06:20:56.885Z,101467.88
2022-07-26T06:23:34.634Z,101472.53
2022-07-26T06:26:05.290Z,101476.06
2022-07-26T06:28:34.278Z,101490.88
2022-07-26T06:31:02.580Z,101482.00
2022-07-26T06:33:31.073Z,101486.09
2022-07-26T06:36:00.576Z,101485.81
2022-07-26T06:38:30.768Z,101492.94
2022-07-26T06:40:59.523Z,101503.38
2022-07-26T06:43:27.802Z,101506.00
2022-07-26T06:45:56.240Z,101502.78
2022-07-26T06:48:24.561Z,101505.19
2022-07-26T06:50:53.032Z,101504.25
2022-07-26T06:53:21.373Z,101511.06
2022-07-26T06:55:52.841Z,101523.31
2022-07-26T06:58:21.287Z,101509.41
2022-07-26T07:00:49.561Z,101508.19
2022-07-26T07:03:17.954Z,101520.47
2022-07-26T07:05:49.935Z,101530.25
2022-07-26T07:08:19.580Z,101530.63
2022-07-26T07:10:50.904Z,101531.22
2022-07-26T07:13:19.724Z,101532.88
2022-07-26T07:15:47.991Z,101543.84
2022-07-26T07:18:16.498Z,101549.34
2022-07-26T07:20:44.924Z,101547.59
2022-07-26T07:23:13.226Z,101550.03
2022-07-26T07:25:41.514Z,101549.25
2022-07-26T07:28:14.677Z,101547.13
2022-07-26T07:30:43.441Z,101550.91
2022-07-26T07:33:22.863Z,101552.78
2022-07-26T07:35:53.771Z,101563.47
2022-07-26T07:38:22.382Z,101582.53
2022-07-26T07:40:51.155Z,101564.16
2022-07-26T07:43:20.874Z,101559.53
2022-07-26T07:45:49.128Z,101561.53
2022-07-26T07:48:17.571Z,101562.44
2022-07-26T07:50:46.318Z,101562.28
2022-07-26T07:53:14.725Z,101567.28
2022-07-26T07:55:46.102Z,101566.81
2022-07-26T07:58:17.326Z,101556.53
2022-07-26T08:00:48.474Z,101535.69
2022-07-26T08:03:18.745Z,101565.50
2022-07-26T08:05:49.459Z,101565.59
2022-07-26T08:08:22.285Z,101562.28
2022-07-26T08:10:53.330Z,101571.84
2022-07-26T08:13:22.970Z,101564.38
2022-07-26T08:15:54.347Z,101581.31
2022-07-26T08:18:25.236Z,101566.25
2022-07-26T08:20:55.080Z,101584.72
2022-07-26T08:23:24.199Z,101581.91
2022-07-26T08:25:58.021Z,101591.75
2022-07-26T08:31:21.026Z,101596.59
2022-07-26T08:33:49.964Z,101606.19
2022-07-26T08:36:19.147Z,101590.50
2022-07-26T08:38:48.443Z,101610.72
2022-07-26T08:41:17.934Z,101610.19
2022-07-26T08:43:52.646Z,101624.44
2022-07-26T08:46:27.457Z,101613.63
2022-07-26T08:48:56.719Z,101614.69
2022-07-26T08:51:27.014Z,101614.16
2022-07-26T08:54:04.685Z,101603.13
2022-07-26T08:56:35.667Z,101531.28
2022-07-26T08:59:06.577Z,101622.31
2022-07-26T09:01:36.828Z,101639.75
2022-07-26T09:04:31.479Z,101633.34
2022-07-26T09:07:04.587Z,101633.72
2022-07-26T09:09:34.239Z,101640.91
2022-07-26T09:12:17.695Z,101637.22
2022-07-26T09:14:47.558Z,101646.06
2022-07-26T09:17:21.231Z,101649.38
2022-07-26T09:20:09.381Z,101634.66
2022-07-26T09:22:38.855Z,101659.03
2022-07-26T09:25:22.478Z,101652.50
2022-07-26T09:27:51.471Z,101653.78
2022-07-26T09:30:20.768Z,101649.91
2022-07-26T09:33:02.305Z,101661.19
2022-07-26T09:35:50.088Z,101669.97
2022-07-26T09:38:20.832Z,101670.50
2022-07-26T09:40:50.883Z,101677.53
2022-07-26T09:43:24.453Z,101678.06
2022-07-26T09:46:06.057Z,101683.53
2022-07-26T09:49:08.253Z,101681.72
2022-07-26T09:51:39.152Z,101681.44
2022-07-26T09:54:08.180Z,101665.59
2022-07-26T09:56:49.846Z,101693.94
2022-07-26T09:59:21.675Z,101689.06
2022-07-26T10:01:51.729Z,101698.06
2022-07-26T10:04:22.757Z,101683.38
2022-07-26T10:06:51.531Z,101694.34
2022-07-26T10:09:20.599Z,101707.53
2022-07-26T10:11:54.323Z,101682.25
2022-07-26T10:14:45.824Z,101702.34
2022-07-26T10:17:49.395Z,101709.88
2022-07-26T10:20:51.945Z,101704.50
2022-07-26T10:23:42.472Z,101701.41
2022-07-26T10:26:37.034Z,101714.44
2022-07-26T10:29:28.070Z,101712.44
2022-07-26T10:32:17.510Z,101650.03
2022-07-26T10:34:46.443Z,101708.09
2022-07-26T10:37:28.095Z,101718.56
2022-07-26T10:40:22.756Z,101721.28
2022-07-26T10:42:51.177Z,101727.63
2022-07-26T10:45:23.379Z,101719.00
2022-07-26T10:48:12.233Z,101728.41
2022-07-26T10:50:41.661Z,101724.28
2022-07-26T10:53:18.625Z,101723.72
2022-07-26T10:55:51.954Z,101726.81
2022-07-26T10:58:21.289Z,101722.78
2022-07-26T11:00:58.997Z,101746.19
2022-07-26T11:03:38.893Z,101731.84
2022-07-26T11:06:14.705Z,101739.81
2022-07-26T11:08:48.335Z,101703.44
2022-07-26T11:11:30.358Z,101738.59
2022-07-26T11:14:10.917Z,101750.78
2022-07-26T11:16:41.311Z,101751.84
2022-07-26T11:19:18.427Z,101747.34
2022-07-26T11:21:55.663Z,101753.66
2022-07-26T11:24:26.872Z,101758.88
2022-07-26T11:26:55.885Z,101758.72
2022-07-26T11:29:38.779Z,101774.00
2022-07-26T11:32:19.017Z,101762.25
2022-07-26T11:34:48.005Z,101759.03
2022-07-26T11:37:16.330Z,101758.06
2022-07-26T11:39:48.116Z,101758.47
2022-07-26T11:42:19.658Z,101753.53
2022-07-26T11:44:50.078Z,101754.63
2022-07-26T11:47:20.503Z,101761.38
2022-07-26T11:50:01.031Z,101769.91
2022-07-26T11:52:37.971Z,101766.72
2022-07-26T11:55:09.780Z,101763.00
2022-07-26T11:57:38.340Z,101776.19
2022-07-26T12:00:08.779Z,101770.81
2022-07-26T12:02:39.911Z,101782.03
2022-07-26T12:05:16.449Z,101780.50
2022-07-26T12:07:56.943Z,101776.25
2022-07-26T12:10:29.484Z,101759.38
2022-07-26T12:13:12.147Z,101771.94
2022-07-26T12:15:49.316Z,101777.38
2022-07-26T12:18:28.875Z,101688.31
2022-07-26T12:21:06.588Z,101783.34
2022-07-26T12:23:48.284Z,101781.47
2022-07-26T12:26:26.093Z,101786.72
2022-07-26T12:28:55.491Z,101781.25
2022-07-26T12:31:30.584Z,101767.81
2022-07-26T12:33:59.946Z,101789.13
2022-07-26T12:36:30.024Z,101780.50
2022-07-26T12:39:00.456Z,101794.13
2022-07-26T12:41:39.211Z,101780.91
2022-07-26T12:44:11.985Z,101787.56
2022-07-26T12:46:41.067Z,101781.59
2022-07-26T12:49:09.565Z,101794.41
2022-07-26T12:51:38.003Z,101786.41
2022-07-26T12:54:07.306Z,101784.63
2022-07-26T12:56:37.109Z,101801.53
2022-07-26T12:59:05.482Z,101788.91
2022-07-26T13:01:34.446Z,101763.25
2022-07-26T13:04:02.958Z,101788.06
2022-07-26T13:06:32.933Z,101798.72
2022-07-26T13:09:01.825Z,101793.19
2022-07-26T13:11:30.356Z,101794.41
2022-07-26T13:14:00.025Z,101792.41
2022-07-26T13:16:28.375Z,101801.84
2022-07-26T13:18:56.667Z,101801.22
2022-07-26T13:21:25.048Z,101799.88
2022-07-26T13:23:53.396Z,101742.09
2022-07-26T13:26:21.873Z,101806.09
2022-07-26T13:28:50.943Z,101801.50
2022-07-26T13:31:20.721Z,101807.06
2022-07-26T13:33:49.165Z,101802.53
2022-07-26T13:36:17.579Z,101808.06
2022-07-26T13:38:45.969Z,101806.31
2022-07-26T13:41:14.424Z,101807.00
2022-07-26T13:43:42.796Z,101811.03
2022-07-26T13:46:11.511Z,101792.50
2022-07-26T13:48:57.941Z,101823.88
2022-07-26T13:51:49.937Z,101803.97
2022-07-26T13:54:20.264Z,101810.34
2022-07-26T13:56:49.526Z,101813.53
2022-07-26T13:59:18.115Z,101804.69
2022-07-26T14:01:46.758Z,101810.38
2022-07-26T14:04:17.145Z,101818.59
2022-07-26T14:06:45.734Z,101808.06
2022-07-26T14:09:15.407Z,101747.78
2022-07-26T14:11:44.490Z,101817.13
2022-07-26T14:14:13.862Z,101825.09
2022-07-26T14:16:42.553Z,101821.47
2022-07-26T14:19:11.236Z,101838.06
2022-07-26T14:21:47.482Z,101835.88
2022-07-26T14:24:29.087Z,101843.28
2022-07-26T14:26:59.721Z,101824.75
2022-07-26T14:29:29.443Z,101828.09
2022-07-26T14:31:57.988Z,101828.22
2022-07-26T14:34:26.674Z,101830.94
2022-07-26T14:36:56.286Z,101770.81
2022-07-26T14:39:24.656Z,101841.31
2022-07-26T14:41:53.618Z,101830.38
2022-07-26T14:44:22.033Z,101835.63
2022-07-26T14:46:50.332Z,101833.47
2022-07-26T14:49:18.849Z,101844.28
2022-07-26T14:51:47.936Z,101831.53
2022-07-26T14:54:18.159Z,101845.63
2022-07-26T14:56:46.571Z,101852.00
2022-07-26T14:59:14.880Z,101848.72
2022-07-26T15:01:43.233Z,101841.59
2022-07-26T15:04:12.144Z,101852.91
2022-07-26T15:06:40.697Z,101846.31
2022-07-26T15:09:08.976Z,101848.69
2022-07-26T15:11:38.788Z,101858.28
2022-07-26T15:14:07.216Z,101849.16
2022-07-26T15:16:35.832Z,101857.78
2022-07-26T15:19:04.342Z,101850.53
2022-07-26T15:21:32.745Z,101852.44
2022-07-26T15:24:01.080Z,101877.84
2022-07-26T15:26:29.392Z,101854.97
2022-07-26T15:28:59.093Z,101856.16
2022-07-26T15:31:37.168Z,101851.81
2022-07-26T15:34:08.953Z,101850.09
2022-07-26T15:36:37.865Z,101856.97
2022-07-26T15:39:16.504Z,101847.50
2022-07-26T15:41:46.172Z,101854.13
2022-07-26T15:44:18.185Z,101837.06
2022-07-26T15:46:48.671Z,101847.25
2022-07-26T15:49:18.316Z,101848.19
2022-07-26T15:51:47.348Z,101844.09
2022-07-26T15:54:16.986Z,101857.34
2022-07-26T15:56:45.746Z,101798.41
2022-07-26T15:59:15.529Z,101845.34
2022-07-26T16:01:43.844Z,101851.25
2022-07-26T16:04:12.727Z,101850.13
2022-07-26T16:06:42.234Z,101858.28
2022-07-26T16:09:17.241Z,101845.66
2022-07-26T16:11:47.326Z,101863.19
2022-07-26T16:14:17.610Z,101865.97
2022-07-26T16:16:46.322Z,101868.34
2022-07-26T16:19:15.102Z,101871.91
2022-07-26T16:21:43.789Z,101876.19
2022-07-26T16:24:12.066Z,101883.78
2022-07-26T16:26:40.843Z,101876.31
2022-07-26T16:29:09.508Z,101864.31
2022-07-26T16:31:41.531Z,101856.00
2022-07-26T16:34:10.421Z,101871.53
2022-07-26T16:36:39.385Z,101869.78
2022-07-26T16:39:08.856Z,101843.72
2022-07-26T16:41:37.574Z,101863.78
2022-07-26T16:44:06.452Z,101872.81
2022-07-26T16:46:34.825Z,101865.72
2022-07-26T16:49:05.065Z,101866.28
2022-07-26T16:51:33.627Z,101865.50
2022-07-26T16:54:01.960Z,101865.41
2022-07-26T16:56:30.397Z,101871.66
2022-07-26T16:58:58.726Z,101877.09
2022-07-26T17:01:27.127Z,101882.44
2022-07-26T17:03:55.567Z,101886.03
2022-07-26T17:06:25.535Z,101881.59
2022-07-26T17:08:53.946Z,101877.84
2022-07-26T17:11:22.245Z,101874.13
2022-07-26T17:13:50.746Z,101868.44
2022-07-26T17:16:24.282Z,101870.50
2022-07-26T17:18:54.860Z,101866.78
2022-07-26T17:21:24.995Z,101865.84
2022-07-26T17:23:53.560Z,101848.63
2022-07-26T17:26:22.099Z,101868.56
2022-07-26T17:28:50.446Z,101873.94
2022-07-26T17:31:18.755Z,101881.66
2022-07-26T17:33:47.279Z,101876.41
2022-07-26T17:36:29.002Z,101881.97
2022-07-26T17:39:02.667Z,101875.41
2022-07-26T17:41:32.638Z,101879.91
2022-07-26T17:44:03.323Z,101873.25
2022-07-26T17:46:33.381Z,101874.81
2022-07-26T17:49:02.585Z,101875.63
2022-07-26T17:51:32.250Z,101874.41
2022-07-26T17:54:00.893Z,101877.06
2022-07-26T17:56:29.727Z,101862.50
2022-07-26T17:58:58.343Z,101867.13
2022-07-26T18:01:28.267Z,101864.56
2022-07-26T18:03:56.707Z,101863.91
2022-07-26T18:06:24.971Z,101867.69
2022-07-26T18:08:54.731Z,101862.97
2022-07-26T18:11:23.004Z,101848.94
2022-07-26T18:13:51.334Z,101864.91
2022-07-26T18:16:19.844Z,101872.44
2022-07-26T18:18:48.189Z,101866.03
2022-07-26T18:21:16.501Z,101871.44
2022-07-26T18:24:06.765Z,101869.56
2022-07-26T18:26:34.855Z,101876.00
2022-07-26T18:29:03.995Z,101879.28
2022-07-26T18:31:32.410Z,101886.53
2022-07-26T18:34:05.930Z,101881.91
2022-07-26T18:36:35.747Z,101779.16
2022-07-26T18:39:04.316Z,101875.97
2022-07-26T18:41:34.284Z,101873.13
2022-07-26T18:44:06.217Z,101777.59
2022-07-26T18:46:34.609Z,101868.84
2022-07-26T18:49:03.099Z,101877.91
2022-07-26T18:51:31.854Z,101881.91
2022-07-26T18:54:00.447Z,101879.56
2022-07-26T18:56:28.909Z,101854.97
2022-07-26T18:58:58.626Z,101880.88
2022-07-26T19:01:27.109Z,101879.88
2022-07-26T19:03:55.560Z,101878.28
2022-07-26T19:06:24.703Z,101881.66
2022-07-26T19:08:53.508Z,101883.19
2022-07-26T19:11:21.832Z,101895.72
2022-07-26T19:13:50.187Z,101863.66
2022-07-26T19:16:20.030Z,101876.94
2022-07-26T19:18:50.806Z,101885.03
2022-07-26T19:21:21.158Z,101888.75
2022-07-26T19:23:49.650Z,101850.91
2022-07-26T19:26:18.020Z,101889.81
2022-07-26T19:28:46.541Z,101887.31
2022-07-26T19:31:15.264Z,101896.09
2022-07-26T19:33:45.074Z,101890.09
2022-07-26T19:36:15.970Z,101887.50
2022-07-26T19:38:54.122Z,101885.59
2022-07-26T19:41:22.440Z,101889.31
2022-07-26T19:43:50.771Z,101892.69
2022-07-26T19:46:19.296Z,101895.53
2022-07-26T19:48:49.103Z,101898.28
2022-07-26T19:51:17.513Z,101906.25
2022-07-26T19:53:46.252Z,101901.03
2022-07-26T19:56:15.033Z,101895.63
2022-07-26T19:58:43.439Z,101915.50
2022-07-26T20:01:11.838Z,101914.44
2022-07-26T20:03:40.266Z,101918.34
2022-07-26T20:06:10.133Z,101909.69
2022-07-26T20:08:39.755Z,101915.13
2022-07-26T20:11:08.176Z,101923.31
2022-07-26T20:13:36.619Z,101919.75
2022-07-26T20:16:06.017Z,101917.97
2022-07-26T20:18:34.469Z,101930.84
2022-07-26T20:21:03.208Z,101931.09
2022-07-26T20:23:33.918Z,101921.88
2022-07-26T20:26:02.202Z,101926.44
2022-07-26T20:28:30.573Z,101934.53
2022-07-26T20:30:59.294Z,101932.03
2022-07-26T20:33:27.741Z,101932.84
2022-07-26T20:35:56.059Z,101931.72
2022-07-26T20:38:25.181Z,101939.72
2022-07-26T20:40:54.898Z,101942.50
2022-07-26T20:43:23.197Z,101947.94
2022-07-26T20:45:53.735Z,101942.41
2022-07-26T20:48:22.330Z,101949.00
2022-07-26T20:50:50.826Z,101948.19
2022-07-26T20:53:19.125Z,101946.38
2022-07-26T20:55:47.447Z,101950.22
2022-07-26T20:58:17.923Z,101953.69
2022-07-26T21:00:46.268Z,101951.25
2022-07-26T21:03:16.786Z,101955.78
2022-07-26T21:05:45.183Z,101958.66
2022-07-26T21:08:13.771Z,101964.94
2022-07-26T21:10:42.189Z,101955.19
2022-07-26T21:13:10.434Z,101966.13
2022-07-26T21:15:42.106Z,101966.16
2022-07-26T21:18:12.257Z,101965.44
2022-07-26T21:20:40.821Z,101968.25
2022-07-26T21:23:17.366Z,101955.81
2022-07-26T21:25:46.822Z,101970.94
2022-07-26T21:28:15.316Z,101963.81
2022-07-26T21:30:45.082Z,101962.09
2022-07-26T21:33:13.793Z,101958.63
2022-07-26T21:35:43.099Z,101960.56
2022-07-26T21:38:11.839Z,101960.63
2022-07-26T21:40:40.268Z,101969.69
2022-07-26T21:43:08.660Z,101961.78
2022-07-26T21:45:37.070Z,101972.75
2022-07-26T21:48:07.819Z,101974.66
2022-07-26T21:50:35.998Z,101976.53
2022-07-26T21:53:04.312Z,101979.47
2022-07-26T21:55:32.667Z,101968.81
2022-07-26T21:58:01.104Z,101979.63
2022-07-26T22:00:29.613Z,101985.97
2022-07-26T22:02:57.913Z,101981.56
2022-07-26T22:05:38.088Z,101974.44
2022-07-26T22:08:13.614Z,101977.28
2022-07-26T22:10:45.434Z,101978.97
2022-07-26T22:13:14.156Z,101972.94
2022-07-26T22:15:43.120Z,101985.44
2022-07-26T22:18:11.576Z,101990.84
2022-07-26T22:20:41.486Z,101987.47
2022-07-26T22:23:12.034Z,101987.75
2022-07-26T22:25:40.909Z,101984.97
2022-07-26T22:28:10.865Z,101982.63
2022-07-26T22:30:40.544Z,101978.34
2022-07-26T22:33:11.685Z,101979.38
2022-07-26T22:35:41.497Z,101978.44
2022-07-26T22:38:11.558Z,101972.25
2022-07-26T22:40:41.575Z,101972.38
2022-07-26T22:43:10.803Z,101970.78
2022-07-26T22:45:39.969Z,101974.84
2022-07-26T22:48:09.333Z,101971.31
2022-07-26T22:50:37.856Z,101970.75
2022-07-26T22:53:07.580Z,101969.03
2022-07-26T22:55:35.937Z,101966.69
2022-07-26T22:58:04.434Z,101947.63
2022-07-26T23:00:32.895Z,101967.00
2022-07-26T23:03:01.265Z,101970.59
2022-07-26T23:05:45.390Z,101963.91
2022-07-26T23:11:06.107Z,101960.59
2022-07-26T23:13:34.875Z,101964.06
2022-07-26T23:16:03.261Z,101960.44
2022-07-26T23:18:34.682Z,101962.28
2022-07-26T23:21:04.210Z,101943.78
2022-07-26T23:23:34.055Z,101962.38
2022-07-26T23:26:02.459Z,101959.66
2022-07-26T23:28:37.152Z,101961.25
2022-07-26T23:31:09.556Z,101957.75
2022-07-26T23:33:52.971Z,101956.16
2022-07-26T23:36:24.890Z,101961.50
2022-07-26T23:38:55.669Z,101938.41
2022-07-26T23:41:24.110Z,101953.50
2022-07-26T23:43:52.888Z,101954.44
2022-07-26T23:46:21.589Z,101958.16
2022-07-26T23:48:50.285Z,101958.28
2022-07-26T23:51:19.453Z,101960.16
2022-07-26T23:53:48.455Z,101963.53
2022-07-26T23:56:18.514Z,101959.91
2022-07-26T23:58:46.989Z,101936.03
